Time;durP1;ratioP1;P1;durP2;ratioP2;P2;SDS_P1;SDS_P2;PMS_P1;PMS_P2;Temp;Humidity;BMP_temperature;BMP_pressure;BME280_temperature;BME280_humidity;BME280_pressure;Samples;Min_cycle;Max_cycle;Signal;HPM_P1;HPM_P2
2022/09/24 00:01:33;;;;;;;66.25;44.33;;;;;;;;;;5133857;27;20088;-68
2022/09/24 00:04:03;;;;;;;68.18;42.35;;;;;;;;;;5126781;27;20441;-68
2022/09/24 00:06:30;;;;;;;66.45;44.30;;;;;;;;;;5112238;28;20039;-68
2022/09/24 00:08:57;;;;;;;67.50;43.70;;;;;;;;;;5112592;28;20138;-67
2022/09/24 00:11:24;;;;;;;62.00;42.72;;;;;;;;;;5112907;28;20115;-67
2022/09/24 00:13:51;;;;;;;65.15;44.08;;;;;;;;;;5112680;28;20039;-67
2022/09/24 00:16:17;;;;;;;72.88;43.20;;;;;;;;;;5113022;28;20067;-67
2022/09/24 00:18:43;;;;;;;67.80;43.95;;;;;;;;;;5112734;28;20385;-67
2022/09/24 00:21:14;;;;;;;66.93;43.65;;;;;;;;;;5112584;28;20073;-67
2022/09/24 00:23:40;;;;;;;68.50;43.88;;;;;;;;;;5112937;28;20040;-67
2022/09/24 00:28:51;;;;;;;79.32;46.05;;;;;;;;;;5132893;27;20484;-67
2022/09/24 00:31:17;;;;;;;70.22;43.83;;;;;;;;;;5133063;27;20105;-67
2022/09/24 00:33:43;;;;;;;73.28;46.17;;;;;;;;;;5132866;27;20050;-67
2022/09/24 00:36:09;;;;;;;73.85;46.75;;;;;;;;;;5132806;27;20058;-67
2022/09/24 00:38:35;;;;;;;70.70;46.10;;;;;;;;;;5133015;27;20071;-67
2022/09/24 00:41:02;;;;;;;78.60;47.72;;;;;;;;;;5114320;27;20077;-67
2022/09/24 00:43:30;;;;;;;73.18;46.47;;;;;;;;;;5132845;27;20047;-67
2022/09/24 00:46:14;;;;;;;74.22;47.78;;;;;;;;;;5133061;27;20039;-67
2022/09/24 00:48:42;;;;;;;68.80;46.00;;;;;;;;;;5132929;27;20043;-67
2022/09/24 00:51:09;;;;;;;79.65;48.08;;;;;;;;;;5132605;27;20043;-67
2022/09/24 00:53:36;;;;;;;76.95;47.55;;;;;;;;;;5132781;27;20118;-67
2022/09/24 00:56:02;;;;;;;73.50;47.63;;;;;;;;;;5132770;27;20711;-67
2022/09/24 00:58:30;;;;;;;79.38;47.47;;;;;;;;;;5132221;27;20039;-67
2022/09/24 01:01:15;;;;;;;75.07;46.35;;;;;;;;;;5114066;27;20050;-67
2022/09/24 01:03:41;;;;;;;71.70;46.58;;;;;;;;;;5127970;27;20027;-67
2022/09/24 01:06:08;;;;;;;71.30;46.95;;;;;;;;;;5111530;28;20035;-67
2022/09/24 01:08:34;;;;;;;73.55;47.10;;;;;;;;;;5111876;28;20039;-67
2022/09/24 01:11:19;;;;;;;80.97;48.92;;;;;;;;;;5111933;28;20468;-67
2022/09/24 01:13:51;;;;;;;76.90;47.67;;;;;;;;;;5093121;28;20093;-67
2022/09/24 01:16:36;;;;;;;76.75;47.55;;;;;;;;;;5111803;28;20047;-67
2022/09/24 01:19:21;;;;;;;69.97;44.50;;;;;;;;;;5111449;28;20127;-67
2022/09/24 01:21:51;;;;;;;76.13;48.40;;;;;;;;;;5111317;28;20043;-67
2022/09/24 01:24:27;;;;;;;75.97;47.22;;;;;;;;;;5111480;28;20050;-67
2022/09/24 01:27:05;;;;;;;72.90;46.97;;;;;;;;;;5127427;27;20052;-67
2022/09/24 01:29:51;;;;;;;67.95;46.28;;;;;;;;;;5112996;27;20035;-67
2022/09/24 01:32:21;;;;;;;72.95;47.58;;;;;;;;;;5132066;27;20460;-67
2022/09/24 01:34:49;;;;;;;75.88;46.33;;;;;;;;;;5131966;27;20045;-67
2022/09/24 01:37:17;;;;;;;69.93;45.55;;;;;;;;;;5131682;27;20050;-67
2022/09/24 01:39:44;;;;;;;73.20;47.92;;;;;;;;;;5113271;27;20047;-67
2022/09/24 01:42:11;;;;;;;73.63;47.05;;;;;;;;;;5131881;27;20047;-67
2022/09/24 01:44:43;;;;;;;73.10;46.40;;;;;;;;;;5131430;27;20495;-67
2022/09/24 01:47:11;;;;;;;78.20;47.28;;;;;;;;;;5131843;27;20089;-67
2022/09/24 01:49:38;;;;;;;71.38;45.72;;;;;;;;;;5132043;27;20078;-67
2022/09/24 01:52:07;;;;;;;74.82;45.97;;;;;;;;;;5131146;27;20039;-67
2022/09/24 01:54:38;;;;;;;77.20;46.05;;;;;;;;;;5131909;27;20042;-67
2022/09/24 01:57:11;;;;;;;74.65;47.30;;;;;;;;;;5131864;27;20045;-67
2022/09/24 01:59:39;;;;;;;70.45;45.55;;;;;;;;;;5131837;28;20039;-67
2022/09/24 02:02:13;;;;;;;77.90;46.13;;;;;;;;;;5131889;28;20090;-67
2022/09/24 02:04:41;;;;;;;75.43;48.47;;;;;;;;;;5118808;28;20500;-67
2022/09/24 02:07:14;;;;;;;78.00;46.88;;;;;;;;;;5110847;28;20100;-67
2022/09/24 02:09:41;;;;;;;78.10;47.75;;;;;;;;;;5075754;28;20086;-67
2022/09/24 02:12:12;;;;;;;73.72;46.90;;;;;;;;;;5110512;28;20679;-67
2022/09/24 02:14:43;;;;;;;75.15;48.28;;;;;;;;;;5111104;28;20046;-67
2022/09/24 02:17:10;;;;;;;73.53;47.13;;;;;;;;;;5113273;28;20046;-67
2022/09/24 02:19:37;;;;;;;75.47;45.47;;;;;;;;;;5114958;28;20481;-67
2022/09/24 02:22:05;;;;;;;73.28;46.17;;;;;;;;;;5115315;28;20031;-67
2022/09/24 02:24:43;;;;;;;69.97;44.83;;;;;;;;;;5115294;28;20052;-67
2022/09/24 02:27:09;;;;;;;71.40;45.75;;;;;;;;;;5132866;27;20050;-67
2022/09/24 02:29:35;;;;;;;73.43;46.10;;;;;;;;;;5135667;27;20492;-67
2022/09/24 02:32:02;;;;;;;72.78;45.60;;;;;;;;;;5135541;27;20039;-67
2022/09/24 02:34:49;;;;;;;69.75;44.85;;;;;;;;;;5135179;27;20106;-67
2022/09/24 02:37:16;;;;;;;70.90;43.00;;;;;;;;;;5135412;27;20387;-67
2022/09/24 02:39:42;;;;;;;73.20;44.22;;;;;;;;;;5135398;27;20422;-67
2022/09/24 02:42:10;;;;;;;70.22;45.22;;;;;;;;;;5116393;27;20102;-67
2022/09/24 02:44:36;;;;;;;66.97;43.63;;;;;;;;;;5135260;27;20477;-67
2022/09/24 02:47:02;;;;;;;71.88;43.17;;;;;;;;;;5135171;27;20088;-67
2022/09/24 02:49:28;;;;;;;76.18;46.17;;;;;;;;;;5134850;27;20421;-67
2022/09/24 02:51:54;;;;;;;74.72;46.40;;;;;;;;;;5135078;27;20035;-67
2022/09/24 02:54:21;;;;;;;73.97;44.22;;;;;;;;;;5135153;27;20466;-67
2022/09/24 02:56:47;;;;;;;70.75;44.00;;;;;;;;;;5134710;27;20426;-67
2022/09/24 02:59:13;;;;;;;77.35;45.80;;;;;;;;;;5134871;27;20526;-67
2022/09/24 03:01:39;;;;;;;72.95;45.00;;;;;;;;;;5116501;27;20063;-67
2022/09/24 03:04:05;;;;;;;73.10;44.10;;;;;;;;;;5126720;27;20135;-67
2022/09/24 03:06:32;;;;;;;71.55;44.97;;;;;;;;;;5114306;28;20043;-67
2022/09/24 03:08:59;;;;;;;75.50;45.50;;;;;;;;;;5095348;28;20169;-67
2022/09/24 03:11:25;;;;;;;73.55;43.80;;;;;;;;;;5112742;28;20086;-67
2022/09/24 03:13:51;;;;;;;75.38;44.25;;;;;;;;;;5112850;28;20657;-67
2022/09/24 03:16:18;;;;;;;71.30;44.38;;;;;;;;;;5112970;28;20035;-67
2022/09/24 03:18:45;;;;;;;79.32;44.53;;;;;;;;;;5112422;28;20044;-67
2022/09/24 03:21:12;;;;;;;72.78;44.67;;;;;;;;;;5112852;28;20035;-67
2022/09/24 03:23:39;;;;;;;73.82;46.10;;;;;;;;;;5112961;28;20143;-67
2022/09/24 03:26:05;;;;;;;78.95;46.08;;;;;;;;;;5112528;28;20032;-67
2022/09/24 03:28:31;;;;;;;69.45;42.97;;;;;;;;;;5112313;28;20075;-67
2022/09/24 03:31:00;;;;;;;79.15;45.42;;;;;;;;;;5111302;28;20393;-67
2022/09/24 03:33:36;;;;;;;75.85;43.80;;;;;;;;;;5112287;28;20040;-67
2022/09/24 03:36:02;;;;;;;72.85;43.10;;;;;;;;;;5112713;28;20035;-67
2022/09/24 03:38:29;;;;;;;74.93;43.53;;;;;;;;;;5112486;28;20090;-67
2022/09/24 03:40:56;;;;;;;71.60;43.58;;;;;;;;;;5112037;28;20039;-67
2022/09/24 03:43:23;;;;;;;74.00;44.40;;;;;;;;;;5112566;28;20060;-67
2022/09/24 03:45:49;;;;;;;70.68;42.83;;;;;;;;;;5112597;28;20040;-67
2022/09/24 03:48:16;;;;;;;69.53;44.38;;;;;;;;;;5112098;28;20035;-67
2022/09/24 03:50:42;;;;;;;81.82;47.30;;;;;;;;;;5112464;28;20035;-67
2022/09/24 03:53:08;;;;;;;74.03;44.00;;;;;;;;;;5112191;28;20386;-67
2022/09/24 03:55:34;;;;;;;79.40;44.65;;;;;;;;;;5112158;28;20086;-67
2022/09/24 03:58:00;;;;;;;72.53;44.55;;;;;;;;;;5112039;28;20567;-67
2022/09/24 04:00:26;;;;;;;76.70;44.10;;;;;;;;;;5112308;28;20058;-67
2022/09/24 04:02:52;;;;;;;75.82;45.28;;;;;;;;;;5112279;28;20465;-67
2022/09/24 04:05:19;;;;;;;74.32;44.25;;;;;;;;;;5111670;28;20040;-67
2022/09/24 04:07:45;;;;;;;78.32;45.75;;;;;;;;;;5112003;28;20035;-67
2022/09/24 04:10:12;;;;;;;74.20;45.45;;;;;;;;;;5073316;28;1111414;-67
2022/09/24 04:12:38;;;;;;;74.32;46.28;;;;;;;;;;5112442;28;20044;-67
2022/09/24 04:15:04;;;;;;;73.18;43.97;;;;;;;;;;5112677;28;20040;-67
2022/09/24 04:17:30;;;;;;;75.82;42.75;;;;;;;;;;5112862;28;20074;-67
2022/09/24 04:19:57;;;;;;;82.75;46.42;;;;;;;;;;5112195;28;20047;-67
2022/09/24 04:22:24;;;;;;;71.10;43.22;;;;;;;;;;5094339;28;20089;-67
2022/09/24 04:24:51;;;;;;;72.68;44.13;;;;;;;;;;5112877;28;20110;-67
2022/09/24 04:27:17;;;;;;;69.75;44.28;;;;;;;;;;5112234;28;20434;-67
2022/09/24 04:29:43;;;;;;;77.00;46.25;;;;;;;;;;5112811;28;20039;-67
2022/09/24 04:32:09;;;;;;;81.05;45.72;;;;;;;;;;5112682;28;20470;-67
2022/09/24 04:34:35;;;;;;;78.63;43.53;;;;;;;;;;5110909;28;20158;-67
2022/09/24 04:37:01;;;;;;;77.88;44.63;;;;;;;;;;5112628;28;20374;-67
2022/09/24 04:39:27;;;;;;;76.80;44.35;;;;;;;;;;5111737;28;20490;-67
2022/09/24 04:41:53;;;;;;;71.43;44.45;;;;;;;;;;5110869;28;20043;-67
2022/09/24 04:44:20;;;;;;;73.78;43.60;;;;;;;;;;5112338;28;20050;-67
2022/09/24 04:46:46;;;;;;;73.72;43.75;;;;;;;;;;5112466;28;20036;-67
2022/09/24 04:49:13;;;;;;;76.45;44.80;;;;;;;;;;5111550;28;20374;-67
2022/09/24 04:51:39;;;;;;;73.43;44.28;;;;;;;;;;5112469;28;20081;-67
2022/09/24 04:54:05;;;;;;;78.72;45.20;;;;;;;;;;5111838;28;20466;-67
2022/09/24 04:56:31;;;;;;;74.70;44.25;;;;;;;;;;5111480;28;20043;-67
2022/09/24 04:58:57;;;;;;;77.32;45.80;;;;;;;;;;5111925;28;20451;-67
2022/09/24 05:01:23;;;;;;;78.38;46.38;;;;;;;;;;5110821;28;20031;-67
2022/09/24 05:03:49;;;;;;;82.95;46.97;;;;;;;;;;5111449;28;20036;-67
2022/09/24 05:06:15;;;;;;;74.93;45.80;;;;;;;;;;5111878;28;20172;-67
2022/09/24 05:08:41;;;;;;;78.03;44.63;;;;;;;;;;5111312;28;20039;-67
2022/09/24 05:11:08;;;;;;;74.07;43.63;;;;;;;;;;5111459;28;20058;-67
2022/09/24 05:13:34;;;;;;;81.68;45.63;;;;;;;;;;5093371;28;20047;-67
2022/09/24 05:16:01;;;;;;;80.07;45.83;;;;;;;;;;5111937;28;20428;-67
2022/09/24 05:18:27;;;;;;;76.68;43.80;;;;;;;;;;5111234;28;20052;-67
2022/09/24 05:20:53;;;;;;;74.68;43.90;;;;;;;;;;5111497;28;20046;-67
2022/09/24 05:23:19;;;;;;;70.63;43.75;;;;;;;;;;5111679;28;20066;-67
2022/09/24 05:28:32;;;;;;;78.35;47.17;;;;;;;;;;5111530;28;20035;-67
2022/09/24 05:31:01;;;;;;;78.93;45.65;;;;;;;;;;5111706;28;20114;-67
2022/09/24 05:33:27;;;;;;;76.50;46.72;;;;;;;;;;5111088;28;20047;-67
2022/09/24 05:35:54;;;;;;;82.00;47.60;;;;;;;;;;5111270;28;20035;-67
2022/09/24 05:38:20;;;;;;;74.55;45.17;;;;;;;;;;5111297;28;20042;-67
2022/09/24 05:40:49;;;;;;;73.97;45.22;;;;;;;;;;5111173;28;20036;-67
2022/09/24 05:43:16;;;;;;;82.35;47.67;;;;;;;;;;5111531;28;20091;-67
2022/09/24 05:45:44;;;;;;;77.32;45.78;;;;;;;;;;5111101;28;20039;-67
2022/09/24 05:48:10;;;;;;;78.75;45.90;;;;;;;;;;5110958;28;20169;-67
2022/09/24 05:50:36;;;;;;;80.88;46.35;;;;;;;;;;5110985;28;20126;-67
2022/09/24 05:53:02;;;;;;;80.88;46.75;;;;;;;;;;5111053;28;20125;-67
2022/09/24 05:55:28;;;;;;;83.38;48.15;;;;;;;;;;5110692;28;20090;-67
2022/09/24 05:57:54;;;;;;;81.00;46.65;;;;;;;;;;5111140;28;20050;-67
2022/09/24 06:00:20;;;;;;;78.07;46.42;;;;;;;;;;5110933;28;20445;-67
2022/09/24 06:02:46;;;;;;;83.82;47.20;;;;;;;;;;5110730;28;20036;-67
2022/09/24 06:05:12;;;;;;;82.45;46.65;;;;;;;;;;5110708;28;20032;-67
2022/09/24 06:07:39;;;;;;;84.15;46.33;;;;;;;;;;5111019;28;20164;-67
2022/09/24 06:10:08;;;;;;;80.13;46.15;;;;;;;;;;5110522;28;20051;-67
2022/09/24 06:12:34;;;;;;;93.15;45.80;;;;;;;;;;5110952;28;20496;-67
2022/09/24 06:15:00;;;;;;;66.80;38.25;;;;;;;;;;5111148;28;20044;-67
2022/09/24 06:17:27;;;;;;;53.78;32.67;;;;;;;;;;5110798;28;20039;-67
2022/09/24 06:19:54;;;;;;;54.15;33.63;;;;;;;;;;5111189;28;20098;-67
2022/09/24 06:22:20;;;;;;;55.13;33.88;;;;;;;;;;5111135;28;20040;-67
2022/09/24 06:24:46;;;;;;;45.67;29.55;;;;;;;;;;5092181;28;20089;-67
2022/09/24 06:27:12;;;;;;;45.22;29.05;;;;;;;;;;5129351;28;20027;-67
2022/09/24 06:29:38;;;;;;;55.40;31.02;;;;;;;;;;5112986;28;20031;-67
2022/09/24 06:32:04;;;;;;;43.05;28.60;;;;;;;;;;5095800;28;20050;-67
2022/09/24 06:34:30;;;;;;;37.78;22.38;;;;;;;;;;5131571;28;20039;-67
2022/09/24 06:36:56;;;;;;;28.55;18.83;;;;;;;;;;5131517;28;20092;-67
2022/09/24 06:39:24;;;;;;;25.00;15.88;;;;;;;;;;5130951;28;20477;-67
2022/09/24 06:41:50;;;;;;;31.02;19.02;;;;;;;;;;5131309;28;20081;-67
2022/09/24 06:44:18;;;;;;;26.52;17.00;;;;;;;;;;5131504;28;20043;-67
2022/09/24 06:46:44;;;;;;;30.05;18.88;;;;;;;;;;5130806;28;20043;-67
2022/09/24 06:49:11;;;;;;;29.17;17.65;;;;;;;;;;5131263;28;20062;-67
2022/09/24 06:51:37;;;;;;;27.23;18.20;;;;;;;;;;5112679;28;20079;-67
2022/09/24 06:54:03;;;;;;;30.02;18.80;;;;;;;;;;5130752;28;20051;-67
2022/09/24 06:56:29;;;;;;;37.85;21.85;;;;;;;;;;5130862;28;20175;-67
2022/09/24 06:58:56;;;;;;;31.45;19.75;;;;;;;;;;5131056;28;20098;-67
2022/09/24 07:01:22;;;;;;;35.53;21.23;;;;;;;;;;5130800;27;20553;-67
2022/09/24 07:03:48;;;;;;;30.20;19.48;;;;;;;;;;5129193;27;20028;-67
2022/09/24 07:06:14;;;;;;;32.03;19.60;;;;;;;;;;5095829;28;20507;-67
2022/09/24 07:08:40;;;;;;;27.48;18.23;;;;;;;;;;5113748;28;20389;-67
2022/09/24 07:11:07;;;;;;;30.95;19.55;;;;;;;;;;5113885;28;20048;-67
2022/09/24 07:13:33;;;;;;;34.28;19.73;;;;;;;;;;5113816;28;20054;-67
2022/09/24 07:16:00;;;;;;;28.55;18.35;;;;;;;;;;5113771;28;20090;-67
2022/09/24 07:18:26;;;;;;;36.65;21.88;;;;;;;;;;5114089;28;20416;-67
2022/09/24 07:20:53;;;;;;;32.47;21.48;;;;;;;;;;5114101;28;20050;-67
2022/09/24 07:23:20;;;;;;;36.08;23.55;;;;;;;;;;5113653;28;20125;-67
2022/09/24 07:25:46;;;;;;;38.58;23.70;;;;;;;;;;5120009;27;20110;-67
2022/09/24 07:28:14;;;;;;;44.13;25.38;;;;;;;;;;5134448;27;20369;-67
2022/09/24 07:30:40;;;;;;;43.20;25.38;;;;;;;;;;5134146;27;20039;-67
2022/09/24 07:33:07;;;;;;;42.30;24.98;;;;;;;;;;5133973;27;20053;-67
2022/09/24 07:35:33;;;;;;;44.72;25.10;;;;;;;;;;5115774;27;20091;-67
2022/09/24 07:38:13;;;;;;;34.75;22.50;;;;;;;;;;5133926;27;20054;-67
2022/09/24 07:40:39;;;;;;;37.75;22.48;;;;;;;;;;5115494;27;20868;-67
2022/09/24 07:43:12;;;;;;;39.30;22.70;;;;;;;;;;5134223;27;20035;-67
2022/09/24 07:45:38;;;;;;;42.15;22.17;;;;;;;;;;5133691;27;20035;-67
2022/09/24 07:48:05;;;;;;;40.50;21.55;;;;;;;;;;5115607;27;20043;-67
2022/09/24 07:50:32;;;;;;;41.22;21.90;;;;;;;;;;5134076;27;20039;-67
2022/09/24 07:52:59;;;;;;;38.22;18.33;;;;;;;;;;5115159;27;20085;-67
2022/09/24 07:55:25;;;;;;;33.17;16.58;;;;;;;;;;5134053;27;20044;-67
2022/09/24 07:57:53;;;;;;;37.30;15.18;;;;;;;;;;5133729;27;20468;-67
2022/09/24 08:00:20;;;;;;;31.17;14.93;;;;;;;;;;5114775;27;20047;-67
2022/09/24 08:02:46;;;;;;;27.13;13.68;;;;;;;;;;5133855;27;20039;-67
2022/09/24 08:05:14;;;;;;;29.02;12.98;;;;;;;;;;5116565;27;20038;-67
2022/09/24 08:07:40;;;;;;;28.48;12.38;;;;;;;;;;5112526;28;20043;-67
2022/09/24 08:10:06;;;;;;;22.15;11.52;;;;;;;;;;5112951;28;20093;-67
2022/09/24 08:12:32;;;;;;;24.88;11.60;;;;;;;;;;5113132;28;20043;-67
2022/09/24 08:14:58;;;;;;;25.48;11.02;;;;;;;;;;5111316;28;20109;-67
2022/09/24 08:17:25;;;;;;;26.63;10.48;;;;;;;;;;5112997;28;20405;-67
2022/09/24 08:19:55;;;;;;;20.50;8.98;;;;;;;;;;5094443;28;20040;-67
2022/09/24 08:22:22;;;;;;;22.92;5.00;;;;;;;;;;5112583;28;20062;-67
2022/09/24 08:24:49;;;;;;;17.45;4.97;;;;;;;;;;5112820;28;20074;-67
2022/09/24 08:27:16;;;;;;;24.98;4.00;;;;;;;;;;5131309;27;20110;-67
2022/09/24 08:29:42;;;;;;;20.58;3.47;;;;;;;;;;5133028;27;20131;-67
2022/09/24 08:32:08;;;;;;;8.55;2.25;;;;;;;;;;5133219;27;20035;-67
2022/09/24 08:34:37;;;;;;;19.73;3.17;;;;;;;;;;5114766;27;20047;-67
2022/09/24 08:37:04;;;;;;;20.30;2.55;;;;;;;;;;5132660;27;20043;-67
2022/09/24 08:39:31;;;;;;;12.48;2.20;;;;;;;;;;5132595;27;20043;-67
2022/09/24 08:42:01;;;;;;;15.55;2.20;;;;;;;;;;5133060;27;20060;-67
2022/09/24 08:47:33;;;;;;;11.18;1.80;;;;;;;;;;5132871;27;20481;-67
2022/09/24 08:50:08;;;;;;;10.27;2.17;;;;;;;;;;5132906;27;20082;-67
2022/09/24 08:52:48;;;;;;;12.80;2.42;;;;;;;;;;5132354;27;20116;-67
2022/09/24 08:55:28;;;;;;;7.15;1.60;;;;;;;;;;5133057;27;20043;-67
2022/09/24 08:58:03;;;;;;;10.45;1.40;;;;;;;;;;5132654;27;20035;-67
2022/09/24 09:00:31;;;;;;;7.55;1.60;;;;;;;;;;5113572;27;20175;-67
2022/09/24 09:03:20;;;;;;;10.50;2.28;;;;;;;;;;5132634;27;20061;-67
2022/09/24 09:05:53;;;;;;;8.80;1.90;;;;;;;;;;5036306;28;20051;-67
2022/09/24 09:08:34;;;;;;;11.02;1.33;;;;;;;;;;5090745;28;20058;-67
2022/09/24 09:11:03;;;;;;;6.90;1.40;;;;;;;;;;5091534;28;20494;-67
2022/09/24 09:13:35;;;;;;;8.75;1.30;;;;;;;;;;5091279;28;20122;-67
2022/09/24 09:16:06;;;;;;;5.97;1.05;;;;;;;;;;5091163;28;20036;-67
2022/09/24 09:18:38;;;;;;;4.28;1.10;;;;;;;;;;5072866;28;20044;-67
2022/09/24 09:21:11;;;;;;;9.32;1.38;;;;;;;;;;5091278;28;20038;-67
2022/09/24 09:23:40;;;;;;;7.65;1.80;;;;;;;;;;5091329;28;20032;-67
2022/09/24 09:26:11;;;;;;;3.50;1.10;;;;;;;;;;5099936;28;20107;-67
2022/09/24 09:28:37;;;;;;;5.22;1.58;;;;;;;;;;5111409;28;20436;-67
2022/09/24 09:31:09;;;;;;;6.20;1.38;;;;;;;;;;5111685;28;20063;-67
2022/09/24 09:33:53;;;;;;;8.48;1.55;;;;;;;;;;5111320;28;20043;-67
2022/09/24 09:36:25;;;;;;;8.25;1.40;;;;;;;;;;5092803;28;20051;-67
2022/09/24 09:38:51;;;;;;;10.23;1.50;;;;;;;;;;5111190;28;20122;-67
2022/09/24 09:41:22;;;;;;;9.18;1.42;;;;;;;;;;5111528;28;20146;-67
2022/09/24 09:43:49;;;;;;;8.32;1.50;;;;;;;;;;5111130;28;20045;-67
2022/09/24 09:46:22;;;;;;;12.63;2.08;;;;;;;;;;5111427;28;20504;-67
2022/09/24 09:48:54;;;;;;;10.50;1.95;;;;;;;;;;5092704;28;20051;-67
2022/09/24 09:51:21;;;;;;;8.93;1.40;;;;;;;;;;5111054;28;20071;-67
2022/09/24 09:54:01;;;;;;;15.73;2.30;;;;;;;;;;5111296;28;20050;-67
2022/09/24 09:56:28;;;;;;;14.43;1.77;;;;;;;;;;5093219;28;20153;-67
2022/09/24 09:59:13;;;;;;;9.60;1.80;;;;;;;;;;5110507;28;20039;-67
2022/09/24 10:01:43;;;;;;;10.18;1.83;;;;;;;;;;5092772;28;20115;-67
2022/09/24 10:04:38;;;;;;;15.98;1.92;;;;;;;;;;5110786;28;20036;-67
2022/09/24 10:07:05;;;;;;;10.38;1.83;;;;;;;;;;5093228;28;20182;-67
2022/09/24 10:09:31;;;;;;;14.75;1.95;;;;;;;;;;5101241;28;20170;-67
2022/09/24 10:12:07;;;;;;;10.88;2.00;;;;;;;;;;5131415;28;20039;-67
2022/09/24 10:14:33;;;;;;;10.38;1.95;;;;;;;;;;5131187;28;20039;-67
2022/09/24 10:17:04;;;;;;;6.40;1.65;;;;;;;;;;5131646;28;20042;-67
2022/09/24 10:19:32;;;;;;;12.30;2.50;;;;;;;;;;5131377;28;20078;-67
2022/09/24 10:21:58;;;;;;;13.32;2.60;;;;;;;;;;5112787;28;20043;-67
2022/09/24 10:24:25;;;;;;;12.95;2.13;;;;;;;;;;5131584;28;20039;-67
2022/09/24 10:26:52;;;;;;;13.68;2.22;;;;;;;;;;5115564;28;20118;-67
2022/09/24 10:32:04;;;;;;;12.70;1.50;;;;;;;;;;5110746;28;20047;-67
2022/09/24 10:34:30;;;;;;;13.60;1.75;;;;;;;;;;5110683;28;20039;-67
2022/09/24 10:37:04;;;;;;;12.52;1.55;;;;;;;;;;5110547;28;20694;-67
2022/09/24 10:39:30;;;;;;;6.22;1.45;;;;;;;;;;5114582;28;20044;-67
2022/09/24 10:41:57;;;;;;;9.88;1.42;;;;;;;;;;5114634;28;20363;-67
2022/09/24 10:44:24;;;;;;;4.03;1.10;;;;;;;;;;5114243;28;20057;-67
2022/09/24 10:47:08;;;;;;;8.85;1.20;;;;;;;;;;5114470;28;20047;-67
2022/09/24 10:49:37;;;;;;;7.07;1.10;;;;;;;;;;5095976;28;20044;-67
2022/09/24 10:52:04;;;;;;;5.72;1.02;;;;;;;;;;5114496;28;20550;-67
2022/09/24 10:54:36;;;;;;;6.75;1.38;;;;;;;;;;5114618;28;20567;-67
2022/09/24 10:57:34;;;;;;;5.10;0.80;;;;;;;;;;5114464;28;20149;-67
2022/09/24 11:00:03;;;;;;;3.45;0.80;;;;;;;;;;5058302;28;20047;-67
2022/09/24 11:02:29;;;;;;;6.15;0.90;;;;;;;;;;5095962;28;20055;-67
2022/09/24 11:04:58;;;;;;;5.97;1.27;;;;;;;;;;5113996;28;20036;-67
2022/09/24 11:07:33;;;;;;;2.33;0.80;;;;;;;;;;5114218;28;20070;-67
2022/09/24 11:10:05;;;;;;;2.88;0.65;;;;;;;;;;5114032;28;20108;-67
2022/09/24 11:12:39;;;;;;;3.55;0.90;;;;;;;;;;5095538;28;20043;-67
2022/09/24 11:15:23;;;;;;;4.70;1.00;;;;;;;;;;5114295;28;20118;-67
2022/09/24 11:18:08;;;;;;;2.22;0.65;;;;;;;;;;5114209;28;20127;-67
2022/09/24 11:20:49;;;;;;;3.75;0.90;;;;;;;;;;5113487;28;20447;-67
2022/09/24 11:23:16;;;;;;;1.67;0.70;;;;;;;;;;5095841;28;20032;-67
2022/09/24 11:25:54;;;;;;;2.00;0.70;;;;;;;;;;5119637;27;20034;-67
2022/09/24 11:28:42;;;;;;;3.15;0.80;;;;;;;;;;5134075;27;20035;-67
2022/09/24 11:31:29;;;;;;;2.75;0.80;;;;;;;;;;5134590;27;20533;-67
2022/09/24 11:34:13;;;;;;;3.25;0.95;;;;;;;;;;5133976;27;20149;-67
2022/09/24 11:36:48;;;;;;;2.95;1.10;;;;;;;;;;5133933;27;20078;-67
2022/09/24 11:39:14;;;;;;;3.95;0.88;;;;;;;;;;5134135;27;20136;-67
2022/09/24 11:41:59;;;;;;;6.40;1.38;;;;;;;;;;5134456;27;20573;-67
2022/09/24 11:44:39;;;;;;;4.68;1.00;;;;;;;;;;5134308;27;20042;-67
2022/09/24 11:47:05;;;;;;;2.80;0.68;;;;;;;;;;5134190;27;20067;-67
2022/09/24 11:49:40;;;;;;;3.42;0.80;;;;;;;;;;5133446;27;20786;-67
2022/09/24 11:52:25;;;;;;;2.65;0.60;;;;;;;;;;5115753;27;20046;-67
2022/09/24 11:55:09;;;;;;;4.03;0.80;;;;;;;;;;5133921;27;20050;-67
2022/09/24 11:57:52;;;;;;;3.90;0.80;;;;;;;;;;5114655;27;20047;-67
2022/09/24 12:00:19;;;;;;;;;;;;;;;;;;5115678;27;20477;-67
2022/09/24 12:02:53;;;;;;;5.00;0.98;;;;;;;;;;5134035;27;19915;-67
2022/09/24 12:05:43;;;;;;;3.13;1.23;;;;;;;;;;5096775;28;20043;-67
2022/09/24 12:08:09;;;;;;;8.70;0.85;;;;;;;;;;5112668;28;20050;-67
2022/09/24 12:10:35;;;;;;;6.68;0.93;;;;;;;;;;5094426;28;20172;-67
2022/09/24 12:13:11;;;;;;;3.45;0.80;;;;;;;;;;5112649;28;20121;-67
2022/09/24 12:15:55;;;;;;;3.80;0.82;;;;;;;;;;5113027;28;20108;-67
2022/09/24 12:18:24;;;;;;;5.93;0.93;;;;;;;;;;5112729;28;20035;-67
2022/09/24 12:21:01;;;;;;;9.82;0.90;;;;;;;;;;5112467;28;20082;-67
2022/09/24 12:23:32;;;;;;;5.60;0.82;;;;;;;;;;5113031;28;20054;-67
2022/09/24 12:26:00;;;;;;;6.68;0.85;;;;;;;;;;5112782;28;20031;-67
2022/09/24 12:34:10;;;;;;;5.90;1.13;;;;;;;;;;5093566;28;20047;-67
2022/09/24 12:36:53;;;;;;;5.75;1.08;;;;;;;;;;5112258;28;20043;-67
2022/09/24 12:39:21;;;;;;;3.55;0.90;;;;;;;;;;5093819;28;20283;-67
2022/09/24 12:41:53;;;;;;;4.47;0.82;;;;;;;;;;5093813;28;20493;-67
2022/09/24 12:44:24;;;;;;;2.42;0.70;;;;;;;;;;5112328;28;20035;-67
2022/09/24 12:46:57;;;;;;;6.40;0.90;;;;;;;;;;5112453;28;20039;-67
2022/09/24 12:49:26;;;;;;;6.72;0.80;;;;;;;;;;5112020;28;20554;-67
2022/09/24 12:51:53;;;;;;;2.72;0.80;;;;;;;;;;5112444;28;20050;-67
2022/09/24 12:54:36;;;;;;;3.20;0.73;;;;;;;;;;5112328;28;20051;-67
2022/09/24 12:57:05;;;;;;;5.85;1.27;;;;;;;;;;5111449;28;20043;-67
2022/09/24 12:59:31;;;;;;;3.15;1.10;;;;;;;;;;5111762;28;20093;-67
2022/09/24 13:02:13;;;;;;;4.45;1.38;;;;;;;;;;5111622;28;20040;-67
2022/09/24 13:04:43;;;;;;;4.82;0.90;;;;;;;;;;5099707;28;20121;-67
2022/09/24 13:07:28;;;;;;;10.30;1.23;;;;;;;;;;5091548;28;20041;-67
2022/09/24 13:09:54;;;;;;;4.97;0.75;;;;;;;;;;5103446;28;20513;-67
2022/09/24 13:12:22;;;;;;;5.53;1.30;;;;;;;;;;5111602;28;20051;-67
2022/09/24 13:15:03;;;;;;;5.30;1.00;;;;;;;;;;5111882;28;20053;-67
2022/09/24 13:17:32;;;;;;;7.57;1.10;;;;;;;;;;5111739;28;20040;-67
2022/09/24 13:20:00;;;;;;;5.25;1.42;;;;;;;;;;5111382;28;20055;-67
2022/09/24 13:22:33;;;;;;;5.60;1.55;;;;;;;;;;5111863;28;20081;-67
2022/09/24 13:25:08;;;;;;;5.40;0.80;;;;;;;;;;5111776;28;20130;-67
2022/09/24 13:27:42;;;;;;;4.25;0.98;;;;;;;;;;5090750;28;20040;-67
2022/09/24 13:30:08;;;;;;;9.02;1.00;;;;;;;;;;5091457;28;20393;-67
2022/09/24 13:32:48;;;;;;;5.00;0.85;;;;;;;;;;5073071;28;20047;-67
2022/09/24 13:35:17;;;;;;;4.43;1.00;;;;;;;;;;5091037;28;20424;-67
2022/09/24 13:37:46;;;;;;;4.38;0.93;;;;;;;;;;5091026;28;20036;-67
2022/09/24 13:40:17;;;;;;;4.18;0.90;;;;;;;;;;5090842;28;20040;-67
2022/09/24 13:42:56;;;;;;;5.75;1.10;;;;;;;;;;5090862;28;20042;-67
2022/09/24 13:45:23;;;;;;;6.10;1.23;;;;;;;;;;5091051;28;20066;-67
2022/09/24 13:48:03;;;;;;;6.07;1.02;;;;;;;;;;5072238;28;20110;-67
2022/09/24 13:50:32;;;;;;;4.57;0.77;;;;;;;;;;5091033;28;20462;-67
2022/09/24 13:53:05;;;;;;;2.10;0.70;;;;;;;;;;5072564;28;20400;-67
2022/09/24 13:55:52;;;;;;;6.50;1.25;;;;;;;;;;5072440;28;20474;-67
2022/09/24 13:58:32;;;;;;;3.90;0.70;;;;;;;;;;5072448;28;20071;-67
2022/09/24 14:01:09;;;;;;;5.55;0.80;;;;;;;;;;5090933;28;20044;-67
2022/09/24 14:03:36;;;;;;;7.45;1.05;;;;;;;;;;5093493;28;20024;-67
2022/09/24 14:06:09;;;;;;;4.68;0.60;;;;;;;;;;5131590;28;20088;-67
2022/09/24 14:08:37;;;;;;;2.08;0.50;;;;;;;;;;5131412;28;20035;-67
2022/09/24 14:11:07;;;;;;;4.82;0.60;;;;;;;;;;5131649;27;20438;-67
2022/09/24 14:13:40;;;;;;;2.70;0.47;;;;;;;;;;5135971;27;20058;-67
2022/09/24 14:16:08;;;;;;;4.32;0.73;;;;;;;;;;5135998;27;20103;-67
2022/09/24 14:18:35;;;;;;;3.97;0.60;;;;;;;;;;5135433;27;20495;-67
2022/09/24 14:21:25;;;;;;;4.18;0.70;;;;;;;;;;5135930;27;20039;-67
2022/09/24 14:23:54;;;;;;;3.65;0.70;;;;;;;;;;5122455;27;20126;-67
2022/09/24 14:26:30;;;;;;;3.58;0.70;;;;;;;;;;5124273;27;20035;-67
2022/09/24 14:28:59;;;;;;;2.72;0.60;;;;;;;;;;5096639;28;20047;-67
2022/09/24 14:31:26;;;;;;;3.15;0.80;;;;;;;;;;5115202;28;20040;-67
2022/09/24 14:33:52;;;;;;;3.05;0.90;;;;;;;;;;5114519;28;20108;-67
2022/09/24 14:36:26;;;;;;;3.67;0.60;;;;;;;;;;5096670;28;20047;-67
2022/09/24 14:39:03;;;;;;;2.42;0.60;;;;;;;;;;5114752;28;20553;-67
2022/09/24 14:41:30;;;;;;;2.88;0.70;;;;;;;;;;5114512;28;20044;-67
2022/09/24 14:44:02;;;;;;;5.70;0.98;;;;;;;;;;5114915;28;20114;-67
2022/09/24 14:46:28;;;;;;;;;;;;;;;;;;5096744;28;20141;-67
2022/09/24 14:49:13;;;;;;;1.83;0.80;;;;;;;;;;5114327;28;19919;-67
2022/09/24 14:51:49;;;;;;;5.68;1.45;;;;;;;;;;5114865;28;20039;-67
2022/09/24 14:54:18;;;;;;;5.32;1.00;;;;;;;;;;5114220;28;20040;-67
2022/09/24 14:56:44;;;;;;;5.45;1.10;;;;;;;;;;5114688;28;20044;-67
2022/09/24 14:59:15;;;;;;;4.88;1.00;;;;;;;;;;5114289;28;20419;-67
2022/09/24 15:01:42;;;;;;;8.38;1.30;;;;;;;;;;5114038;28;20046;-67